sensor_id;sensor_type;location;lat;lon;timestamp;temperature;humidity
59977;DHT22;45837;51.076;3.578;2022-12-07T00:01:22;18.60;56.50
59977;DHT22;45837;51.076;3.578;2022-12-07T00:03:49;18.60;56.40
59977;DHT22;45837;51.076;3.578;2022-12-07T00:06:17;18.50;56.40
59977;DHT22;45837;51.076;3.578;2022-12-07T00:08:43;18.50;56.40
59977;DHT22;45837;51.076;3.578;2022-12-07T00:11:12;18.60;56.50
59977;DHT22;45837;51.076;3.578;2022-12-07T00:13:39;18.50;56.40
59977;DHT22;45837;51.076;3.578;2022-12-07T00:16:07;18.60;56.50
59977;DHT22;45837;51.076;3.578;2022-12-07T00:18:35;18.50;56.40
59977;DHT22;45837;51.076;3.578;2022-12-07T00:21:20;18.50;56.40
59977;DHT22;45837;51.076;3.578;2022-12-07T00:23:48;18.50;56.40
59977;DHT22;45837;51.076;3.578;2022-12-07T00:26:20;18.50;56.50
59977;DHT22;45837;51.076;3.578;2022-12-07T00:28:47;18.50;56.50
59977;DHT22;45837;51.076;3.578;2022-12-07T00:31:14;18.50;56.40
59977;DHT22;45837;51.076;3.578;2022-12-07T00:33:40;18.50;56.40
59977;DHT22;45837;51.076;3.578;2022-12-07T00:36:09;18.40;56.40
59977;DHT22;45837;51.076;3.578;2022-12-07T00:38:37;18.40;56.40
59977;DHT22;45837;51.076;3.578;2022-12-07T00:41:06;18.40;56.40
59977;DHT22;45837;51.076;3.578;2022-12-07T00:43:33;18.50;56.40
59977;DHT22;45837;51.076;3.578;2022-12-07T00:45:59;18.40;56.40
59977;DHT22;45837;51.076;3.578;2022-12-07T00:48:25;18.40;56.40
59977;DHT22;45837;51.076;3.578;2022-12-07T00:50:51;18.40;56.50
59977;DHT22;45837;51.076;3.578;2022-12-07T00:53:17;18.40;56.40
59977;DHT22;45837;51.076;3.578;2022-12-07T00:55:44;18.40;56.40
59977;DHT22;45837;51.076;3.578;2022-12-07T00:58:10;18.40;56.40
59977;DHT22;45837;51.076;3.578;2022-12-07T01:00:38;18.30;56.40
59977;DHT22;45837;51.076;3.578;2022-12-07T01:03:05;18.40;56.40
59977;DHT22;45837;51.076;3.578;2022-12-07T01:05:31;18.40;56.40
59977;DHT22;45837;51.076;3.578;2022-12-07T01:07:58;18.30;56.40
59977;DHT22;45837;51.076;3.578;2022-12-07T01:10:24;18.30;56.40
59977;DHT22;45837;51.076;3.578;2022-12-07T01:12:49;18.30;56.40
59977;DHT22;45837;51.076;3.578;2022-12-07T01:15:15;18.30;56.40
59977;DHT22;45837;51.076;3.578;2022-12-07T01:17:41;18.30;56.40
59977;DHT22;45837;51.076;3.578;2022-12-07T01:20:07;18.20;56.40
59977;DHT22;45837;51.076;3.578;2022-12-07T01:22:40;18.30;56.30
59977;DHT22;45837;51.076;3.578;2022-12-07T01:25:07;18.20;56.20
59977;DHT22;45837;51.076;3.578;2022-12-07T01:27:34;18.20;56.30
59977;DHT22;45837;51.076;3.578;2022-12-07T01:30:02;18.20;56.30
59977;DHT22;45837;51.076;3.578;2022-12-07T01:32:29;18.20;56.30
59977;DHT22;45837;51.076;3.578;2022-12-07T01:34:54;18.20;56.30
59977;DHT22;45837;51.076;3.578;2022-12-07T01:37:20;18.20;56.40
59977;DHT22;45837;51.076;3.578;2022-12-07T01:39:50;18.20;56.40
59977;DHT22;45837;51.076;3.578;2022-12-07T01:42:17;18.20;56.40
59977;DHT22;45837;51.076;3.578;2022-12-07T01:47:55;18.20;56.20
59977;DHT22;45837;51.076;3.578;2022-12-07T01:50:25;18.10;56.40
59977;DHT22;45837;51.076;3.578;2022-12-07T01:52:54;18.10;56.40
59977;DHT22;45837;51.076;3.578;2022-12-07T01:55:22;18.10;56.40
59977;DHT22;45837;51.076;3.578;2022-12-07T01:57:51;18.10;56.50
59977;DHT22;45837;51.076;3.578;2022-12-07T02:00:19;18.10;56.40
59977;DHT22;45837;51.076;3.578;2022-12-07T02:03:10;18.10;56.40
59977;DHT22;45837;51.076;3.578;2022-12-07T02:05:38;18.10;56.30
59977;DHT22;45837;51.076;3.578;2022-12-07T02:08:04;18.10;56.40
59977;DHT22;45837;51.076;3.578;2022-12-07T02:10:31;18.10;56.50
59977;DHT22;45837;51.076;3.578;2022-12-07T02:13:11;18.10;56.40
59977;DHT22;45837;51.076;3.578;2022-12-07T02:18:48;18.00;56.40
59977;DHT22;45837;51.076;3.578;2022-12-07T02:21:45;18.10;56.40
59977;DHT22;45837;51.076;3.578;2022-12-07T02:37:48;17.90;56.50
59977;DHT22;45837;51.076;3.578;2022-12-07T02:40:33;17.90;56.50
59977;DHT22;45837;51.076;3.578;2022-12-07T02:45:39;17.90;56.60
59977;DHT22;45837;51.076;3.578;2022-12-07T02:48:07;17.90;56.60
59977;DHT22;45837;51.076;3.578;2022-12-07T02:50:34;17.90;56.60
59977;DHT22;45837;51.076;3.578;2022-12-07T02:53:00;17.90;56.60
59977;DHT22;45837;51.076;3.578;2022-12-07T02:55:34;17.90;56.60
59977;DHT22;45837;51.076;3.578;2022-12-07T03:04:33;17.80;56.50
59977;DHT22;45837;51.076;3.578;2022-12-07T03:07:18;17.80;56.60
59977;DHT22;45837;51.076;3.578;2022-12-07T03:12:42;17.80;56.60
59977;DHT22;45837;51.076;3.578;2022-12-07T03:18:16;17.80;56.50
59977;DHT22;45837;51.076;3.578;2022-12-07T03:20:44;17.80;56.60
59977;DHT22;45837;51.076;3.578;2022-12-07T03:23:12;17.80;56.60
59977;DHT22;45837;51.076;3.578;2022-12-07T03:25:43;17.80;56.50
59977;DHT22;45837;51.076;3.578;2022-12-07T03:28:10;17.70;56.50
59977;DHT22;45837;51.076;3.578;2022-12-07T03:30:58;17.70;56.50
59977;DHT22;45837;51.076;3.578;2022-12-07T03:33:29;17.80;56.40
59977;DHT22;45837;51.076;3.578;2022-12-07T03:36:17;17.80;56.50
59977;DHT22;45837;51.076;3.578;2022-12-07T03:38:57;17.80;56.40
59977;DHT22;45837;51.076;3.578;2022-12-07T03:41:29;17.70;56.40
59977;DHT22;45837;51.076;3.578;2022-12-07T03:43:57;17.70;56.40
59977;DHT22;45837;51.076;3.578;2022-12-07T03:46:37;17.70;56.50
59977;DHT22;45837;51.076;3.578;2022-12-07T03:49:42;17.70;56.40
59977;DHT22;45837;51.076;3.578;2022-12-07T03:52:18;17.70;56.40
59977;DHT22;45837;51.076;3.578;2022-12-07T03:55:39;17.70;56.50
59977;DHT22;45837;51.076;3.578;2022-12-07T03:57:45;17.60;56.40
59977;DHT22;45837;51.076;3.578;2022-12-07T04:00:13;17.60;57.10
59977;DHT22;45837;51.076;3.578;2022-12-07T04:02:39;17.60;56.60
59977;DHT22;45837;51.076;3.578;2022-12-07T04:05:06;17.60;56.50
59977;DHT22;45837;51.076;3.578;2022-12-07T04:07:32;17.60;56.50
59977;DHT22;45837;51.076;3.578;2022-12-07T04:09:58;17.60;56.60
59977;DHT22;45837;51.076;3.578;2022-12-07T04:12:24;17.60;56.60
59977;DHT22;45837;51.076;3.578;2022-12-07T04:14:50;17.60;56.50
59977;DHT22;45837;51.076;3.578;2022-12-07T04:17:16;17.60;56.50
59977;DHT22;45837;51.076;3.578;2022-12-07T04:19:41;17.60;56.60
59977;DHT22;45837;51.076;3.578;2022-12-07T04:22:08;17.60;56.50
59977;DHT22;45837;51.076;3.578;2022-12-07T04:24:34;17.60;56.50
59977;DHT22;45837;51.076;3.578;2022-12-07T04:27:00;17.60;56.60
59977;DHT22;45837;51.076;3.578;2022-12-07T04:29:26;17.60;56.50
59977;DHT22;45837;51.076;3.578;2022-12-07T04:31:53;17.60;56.50
59977;DHT22;45837;51.076;3.578;2022-12-07T04:34:19;17.60;56.50
59977;DHT22;45837;51.076;3.578;2022-12-07T04:36:46;17.50;56.40
59977;DHT22;45837;51.076;3.578;2022-12-07T04:39:21;17.60;56.50
59977;DHT22;45837;51.076;3.578;2022-12-07T04:41:47;17.50;56.40
59977;DHT22;45837;51.076;3.578;2022-12-07T04:44:14;17.50;56.50
59977;DHT22;45837;51.076;3.578;2022-12-07T04:46:41;17.50;56.50
59977;DHT22;45837;51.076;3.578;2022-12-07T04:49:07;17.50;56.50
59977;DHT22;45837;51.076;3.578;2022-12-07T04:51:33;17.50;56.50
59977;DHT22;45837;51.076;3.578;2022-12-07T04:53:58;17.50;56.50
59977;DHT22;45837;51.076;3.578;2022-12-07T04:56:24;17.50;56.50
59977;DHT22;45837;51.076;3.578;2022-12-07T04:58:52;17.50;56.30
59977;DHT22;45837;51.076;3.578;2022-12-07T05:01:18;17.50;56.60
59977;DHT22;45837;51.076;3.578;2022-12-07T05:03:45;17.50;57.90
59977;DHT22;45837;51.076;3.578;2022-12-07T05:06:11;17.50;57.30
59977;DHT22;45837;51.076;3.578;2022-12-07T05:08:38;17.50;57.30
59977;DHT22;45837;51.076;3.578;2022-12-07T05:11:04;17.60;57.60
59977;DHT22;45837;51.076;3.578;2022-12-07T05:13:31;17.60;57.80
59977;DHT22;45837;51.076;3.578;2022-12-07T05:15:57;17.60;58.10
59977;DHT22;45837;51.076;3.578;2022-12-07T05:18:23;17.60;58.60
59977;DHT22;45837;51.076;3.578;2022-12-07T05:20:49;17.60;58.90
59977;DHT22;45837;51.076;3.578;2022-12-07T05:23:17;17.60;59.00
59977;DHT22;45837;51.076;3.578;2022-12-07T05:25:43;17.60;59.10
59977;DHT22;45837;51.076;3.578;2022-12-07T05:28:09;17.70;59.10
59977;DHT22;45837;51.076;3.578;2022-12-07T05:30:35;17.80;59.10
59977;DHT22;45837;51.076;3.578;2022-12-07T05:33:01;17.90;58.90
59977;DHT22;45837;51.076;3.578;2022-12-07T05:35:28;18.00;58.70
59977;DHT22;45837;51.076;3.578;2022-12-07T05:37:55;18.10;58.50
59977;DHT22;45837;51.076;3.578;2022-12-07T05:40:21;18.10;58.10
59977;DHT22;45837;51.076;3.578;2022-12-07T05:42:47;18.30;57.90
59977;DHT22;45837;51.076;3.578;2022-12-07T05:45:13;18.30;57.70
59977;DHT22;45837;51.076;3.578;2022-12-07T05:47:38;18.40;57.20
59977;DHT22;45837;51.076;3.578;2022-12-07T05:50:06;18.50;57.30
59977;DHT22;45837;51.076;3.578;2022-12-07T05:52:32;18.60;57.30
59977;DHT22;45837;51.076;3.578;2022-12-07T05:54:58;18.70;57.20
59977;DHT22;45837;51.076;3.578;2022-12-07T05:57:23;18.70;57.00
59977;DHT22;45837;51.076;3.578;2022-12-07T05:59:49;18.80;57.00
59977;DHT22;45837;51.076;3.578;2022-12-07T06:02:16;18.90;56.90
59977;DHT22;45837;51.076;3.578;2022-12-07T06:04:44;19.00;56.80
59977;DHT22;45837;51.076;3.578;2022-12-07T06:07:12;19.10;56.60
59977;DHT22;45837;51.076;3.578;2022-12-07T06:09:38;19.20;56.60
59977;DHT22;45837;51.076;3.578;2022-12-07T06:12:04;19.30;56.50
59977;DHT22;45837;51.076;3.578;2022-12-07T06:14:49;19.40;56.30
59977;DHT22;45837;51.076;3.578;2022-12-07T06:17:15;19.40;56.30
59977;DHT22;45837;51.076;3.578;2022-12-07T06:19:41;19.50;56.30
59977;DHT22;45837;51.076;3.578;2022-12-07T06:22:07;19.50;56.40
59977;DHT22;45837;51.076;3.578;2022-12-07T06:24:35;19.50;56.30
59977;DHT22;45837;51.076;3.578;2022-12-07T06:27:01;19.50;56.30
59977;DHT22;45837;51.076;3.578;2022-12-07T06:29:27;19.50;56.40
59977;DHT22;45837;51.076;3.578;2022-12-07T06:31:53;19.60;56.30
59977;DHT22;45837;51.076;3.578;2022-12-07T06:34:20;19.60;56.50
59977;DHT22;45837;51.076;3.578;2022-12-07T06:36:48;19.60;56.60
59977;DHT22;45837;51.076;3.578;2022-12-07T06:39:18;19.70;56.80
59977;DHT22;45837;51.076;3.578;2022-12-07T06:41:44;19.60;56.80
59977;DHT22;45837;51.076;3.578;2022-12-07T06:44:10;19.70;56.60
59977;DHT22;45837;51.076;3.578;2022-12-07T06:46:36;19.70;56.40
59977;DHT22;45837;51.076;3.578;2022-12-07T06:49:03;19.80;56.30
59977;DHT22;45837;51.076;3.578;2022-12-07T06:51:30;19.80;56.00
59977;DHT22;45837;51.076;3.578;2022-12-07T06:53:56;19.90;55.90
59977;DHT22;45837;51.076;3.578;2022-12-07T06:56:22;19.90;54.20
59977;DHT22;45837;51.076;3.578;2022-12-07T06:58:48;19.90;53.60
59977;DHT22;45837;51.076;3.578;2022-12-07T07:01:17;19.90;53.30
59977;DHT22;45837;51.076;3.578;2022-12-07T07:03:44;19.80;53.00
59977;DHT22;45837;51.076;3.578;2022-12-07T07:06:11;19.80;52.80
59977;DHT22;45837;51.076;3.578;2022-12-07T07:08:38;19.70;52.60
59977;DHT22;45837;51.076;3.578;2022-12-07T07:11:04;19.80;52.50
59977;DHT22;45837;51.076;3.578;2022-12-07T07:13:30;19.80;52.40
59977;DHT22;45837;51.076;3.578;2022-12-07T07:15:56;19.70;52.20
59977;DHT22;45837;51.076;3.578;2022-12-07T07:18:22;19.70;52.00
59977;DHT22;45837;51.076;3.578;2022-12-07T07:20:50;19.70;51.60
59977;DHT22;45837;51.076;3.578;2022-12-07T07:23:16;19.70;51.40
59977;DHT22;45837;51.076;3.578;2022-12-07T07:25:42;19.60;51.30
59977;DHT22;45837;51.076;3.578;2022-12-07T07:28:08;19.60;51.10
59977;DHT22;45837;51.076;3.578;2022-12-07T07:30:34;19.60;50.80
59977;DHT22;45837;51.076;3.578;2022-12-07T07:33:01;19.60;50.70
59977;DHT22;45837;51.076;3.578;2022-12-07T07:35:28;19.50;50.80
59977;DHT22;45837;51.076;3.578;2022-12-07T07:37:54;19.50;50.80
59977;DHT22;45837;51.076;3.578;2022-12-07T07:40:21;19.40;50.60
59977;DHT22;45837;51.076;3.578;2022-12-07T07:42:48;19.40;50.70
59977;DHT22;45837;51.076;3.578;2022-12-07T07:45:14;19.40;50.60
59977;DHT22;45837;51.076;3.578;2022-12-07T07:47:40;19.30;50.80
59977;DHT22;45837;51.076;3.578;2022-12-07T07:50:06;19.30;50.60
59977;DHT22;45837;51.076;3.578;2022-12-07T07:52:32;19.20;50.60
59977;DHT22;45837;51.076;3.578;2022-12-07T07:54:58;19.20;50.70
59977;DHT22;45837;51.076;3.578;2022-12-07T07:57:23;19.10;50.70
59977;DHT22;45837;51.076;3.578;2022-12-07T07:59:49;19.10;50.70
59977;DHT22;45837;51.076;3.578;2022-12-07T08:02:17;19.00;50.70
59977;DHT22;45837;51.076;3.578;2022-12-07T08:04:44;19.00;50.70
59977;DHT22;45837;51.076;3.578;2022-12-07T08:07:11;19.00;50.80
59977;DHT22;45837;51.076;3.578;2022-12-07T08:09:37;18.90;50.90
59977;DHT22;45837;51.076;3.578;2022-12-07T08:12:03;18.90;51.00
59977;DHT22;45837;51.076;3.578;2022-12-07T08:14:30;18.90;51.30
59977;DHT22;45837;51.076;3.578;2022-12-07T08:16:56;18.80;51.60
59977;DHT22;45837;51.076;3.578;2022-12-07T08:19:22;18.80;51.80
59977;DHT22;45837;51.076;3.578;2022-12-07T08:21:48;18.70;52.10
59977;DHT22;45837;51.076;3.578;2022-12-07T08:24:14;18.70;52.50
59977;DHT22;45837;51.076;3.578;2022-12-07T08:26:40;18.70;52.80
59977;DHT22;45837;51.076;3.578;2022-12-07T08:29:06;18.70;52.90
59977;DHT22;45837;51.076;3.578;2022-12-07T08:31:32;18.70;53.10
59977;DHT22;45837;51.076;3.578;2022-12-07T08:33:58;18.80;53.10
59977;DHT22;45837;51.076;3.578;2022-12-07T08:36:24;18.80;53.10
59977;DHT22;45837;51.076;3.578;2022-12-07T08:38:50;18.90;53.10
59977;DHT22;45837;51.076;3.578;2022-12-07T08:41:17;18.90;53.00
59977;DHT22;45837;51.076;3.578;2022-12-07T08:43:43;19.00;52.70
59977;DHT22;45837;51.076;3.578;2022-12-07T08:46:16;19.10;52.80
59977;DHT22;45837;51.076;3.578;2022-12-07T08:48:49;19.30;52.80
59977;DHT22;45837;51.076;3.578;2022-12-07T08:51:15;19.40;52.70
59977;DHT22;45837;51.076;3.578;2022-12-07T08:53:42;19.50;52.50
59977;DHT22;45837;51.076;3.578;2022-12-07T08:56:09;19.60;52.40
59977;DHT22;45837;51.076;3.578;2022-12-07T08:58:36;19.70;52.40
59977;DHT22;45837;51.076;3.578;2022-12-07T09:01:03;19.80;52.20
59977;DHT22;45837;51.076;3.578;2022-12-07T09:03:29;19.80;52.40
59977;DHT22;45837;51.076;3.578;2022-12-07T09:05:54;19.90;52.70
59977;DHT22;45837;51.076;3.578;2022-12-07T09:08:22;19.90;52.80
59977;DHT22;45837;51.076;3.578;2022-12-07T09:10:51;19.90;52.80
59977;DHT22;45837;51.076;3.578;2022-12-07T09:13:17;20.00;52.90
59977;DHT22;45837;51.076;3.578;2022-12-07T09:15:43;20.00;53.20
59977;DHT22;45837;51.076;3.578;2022-12-07T09:18:09;20.00;53.00
59977;DHT22;45837;51.076;3.578;2022-12-07T09:20:34;20.10;52.90
59977;DHT22;45837;51.076;3.578;2022-12-07T09:23:00;20.20;52.80
59977;DHT22;45837;51.076;3.578;2022-12-07T09:25:26;20.20;52.70
59977;DHT22;45837;51.076;3.578;2022-12-07T09:27:56;20.30;52.70
59977;DHT22;45837;51.076;3.578;2022-12-07T09:30:22;20.30;52.80
59977;DHT22;45837;51.076;3.578;2022-12-07T09:32:48;20.30;53.20
59977;DHT22;45837;51.076;3.578;2022-12-07T09:35:14;20.40;53.40
59977;DHT22;45837;51.076;3.578;2022-12-07T09:37:40;20.40;53.40
59977;DHT22;45837;51.076;3.578;2022-12-07T09:40:06;20.40;53.40
59977;DHT22;45837;51.076;3.578;2022-12-07T09:42:35;20.50;53.40
59977;DHT22;45837;51.076;3.578;2022-12-07T09:45:05;20.50;53.20
59977;DHT22;45837;51.076;3.578;2022-12-07T09:47:32;20.60;53.20
59977;DHT22;45837;51.076;3.578;2022-12-07T09:50:12;20.60;53.10
59977;DHT22;45837;51.076;3.578;2022-12-07T09:52:39;20.60;52.90
59977;DHT22;45837;51.076;3.578;2022-12-07T09:55:14;20.70;53.00
59977;DHT22;45837;51.076;3.578;2022-12-07T09:57:40;20.70;52.90
59977;DHT22;45837;51.076;3.578;2022-12-07T10:00:13;20.70;52.80
59977;DHT22;45837;51.076;3.578;2022-12-07T10:02:46;20.70;52.80
59977;DHT22;45837;51.076;3.578;2022-12-07T10:05:16;20.70;52.90
59977;DHT22;45837;51.076;3.578;2022-12-07T10:07:42;20.70;52.90
59977;DHT22;45837;51.076;3.578;2022-12-07T10:10:17;20.70;52.90
59977;DHT22;45837;51.076;3.578;2022-12-07T10:20:48;20.90;53.20
59977;DHT22;45837;51.076;3.578;2022-12-07T10:23:16;20.80;53.50
59977;DHT22;45837;51.076;3.578;2022-12-07T10:25:43;20.80;53.50
59977;DHT22;45837;51.076;3.578;2022-12-07T10:28:14;20.80;53.70
59977;DHT22;45837;51.076;3.578;2022-12-07T10:31:02;20.90;53.70
59977;DHT22;45837;51.076;3.578;2022-12-07T10:33:35;20.90;53.60
59977;DHT22;45837;51.076;3.578;2022-12-07T10:36:33;20.90;53.80
59977;DHT22;45837;51.076;3.578;2022-12-07T10:39:22;20.90;53.90
59977;DHT22;45837;51.076;3.578;2022-12-07T10:42:00;20.90;53.90
59977;DHT22;45837;51.076;3.578;2022-12-07T10:44:31;21.00;53.80
59977;DHT22;45837;51.076;3.578;2022-12-07T10:52:45;21.00;53.60
59977;DHT22;45837;51.076;3.578;2022-12-07T11:01:28;21.00;53.60
59977;DHT22;45837;51.076;3.578;2022-12-07T11:03:37;21.00;53.30
59977;DHT22;45837;51.076;3.578;2022-12-07T11:09:26;21.10;53.40
59977;DHT22;45837;51.076;3.578;2022-12-07T11:12:25;21.10;53.50
59977;DHT22;45837;51.076;3.578;2022-12-07T11:18:10;21.10;52.50
59977;DHT22;45837;51.076;3.578;2022-12-07T11:29:09;21.10;52.90
59977;DHT22;45837;51.076;3.578;2022-12-07T11:34:31;21.10;53.20
59977;DHT22;45837;51.076;3.578;2022-12-07T11:37:01;21.10;53.40
59977;DHT22;45837;51.076;3.578;2022-12-07T11:39:35;21.10;53.60
59977;DHT22;45837;51.076;3.578;2022-12-07T11:42:24;21.20;53.70
59977;DHT22;45837;51.076;3.578;2022-12-07T11:47:36;21.20;53.90
59977;DHT22;45837;51.076;3.578;2022-12-07T11:58:35;21.30;54.40
59977;DHT22;45837;51.076;3.578;2022-12-07T12:06:38;21.10;55.00
59977;DHT22;45837;51.076;3.578;2022-12-07T12:09:11;21.10;55.10
59977;DHT22;45837;51.076;3.578;2022-12-07T12:18:27;21.20;55.00
59977;DHT22;45837;51.076;3.578;2022-12-07T12:20:36;21.10;55.20
59977;DHT22;45837;51.076;3.578;2022-12-07T12:25:41;21.10;55.40
59977;DHT22;45837;51.076;3.578;2022-12-07T12:33:46;21.00;56.30
59977;DHT22;45837;51.076;3.578;2022-12-07T12:46:58;21.10;55.80
59977;DHT22;45837;51.076;3.578;2022-12-07T12:52:27;21.10;56.90
59977;DHT22;45837;51.076;3.578;2022-12-07T12:55:01;21.20;58.10
59977;DHT22;45837;51.076;3.578;2022-12-07T12:57:33;21.20;58.30
59977;DHT22;45837;51.076;3.578;2022-12-07T13:00:20;21.20;58.80
59977;DHT22;45837;51.076;3.578;2022-12-07T13:02:53;21.20;58.70
59977;DHT22;45837;51.076;3.578;2022-12-07T13:05:24;21.10;58.80
59977;DHT22;45837;51.076;3.578;2022-12-07T13:08:11;21.10;58.90
59977;DHT22;45837;51.076;3.578;2022-12-07T13:10:45;21.00;59.10
59977;DHT22;45837;51.076;3.578;2022-12-07T13:15:52;21.10;59.00
59977;DHT22;45837;51.076;3.578;2022-12-07T13:26:45;21.10;58.70
59977;DHT22;45837;51.076;3.578;2022-12-07T13:29:19;21.20;58.70
59977;DHT22;45837;51.076;3.578;2022-12-07T13:31:56;21.10;58.40
59977;DHT22;45837;51.076;3.578;2022-12-07T13:34:39;21.10;57.80
59977;DHT22;45837;51.076;3.578;2022-12-07T13:39:46;21.10;56.70
59977;DHT22;45837;51.076;3.578;2022-12-07T13:42:38;21.10;56.50
59977;DHT22;45837;51.076;3.578;2022-12-07T13:45:31;21.10;56.00
59977;DHT22;45837;51.076;3.578;2022-12-07T13:50:59;21.00;55.20
59977;DHT22;45837;51.076;3.578;2022-12-07T13:53:27;21.00;54.90
59977;DHT22;45837;51.076;3.578;2022-12-07T13:56:00;20.90;54.70
59977;DHT22;45837;51.076;3.578;2022-12-07T13:58:29;20.90;54.50
59977;DHT22;45837;51.076;3.578;2022-12-07T14:00:56;21.00;54.40
59977;DHT22;45837;51.076;3.578;2022-12-07T14:03:42;20.90;54.10
59977;DHT22;45837;51.076;3.578;2022-12-07T14:08:43;20.90;54.40
59977;DHT22;45837;51.076;3.578;2022-12-07T14:11:20;20.80;54.70
59977;DHT22;45837;51.076;3.578;2022-12-07T14:16:27;20.60;55.50
59977;DHT22;45837;51.076;3.578;2022-12-07T14:18:55;20.70;55.70
59977;DHT22;45837;51.076;3.578;2022-12-07T14:21:24;20.60;55.80
59977;DHT22;45837;51.076;3.578;2022-12-07T14:26:34;20.60;56.10
59977;DHT22;45837;51.076;3.578;2022-12-07T14:31:48;20.80;56.00
59977;DHT22;45837;51.076;3.578;2022-12-07T14:34:14;20.80;56.20
59977;DHT22;45837;51.076;3.578;2022-12-07T14:36:40;20.90;56.30
59977;DHT22;45837;51.076;3.578;2022-12-07T14:39:06;21.00;56.30
59977;DHT22;45837;51.076;3.578;2022-12-07T14:41:31;21.00;56.30
59977;DHT22;45837;51.076;3.578;2022-12-07T14:44:16;21.00;56.00
59977;DHT22;45837;51.076;3.578;2022-12-07T14:46:43;21.00;56.20
59977;DHT22;45837;51.076;3.578;2022-12-07T14:49:09;20.90;56.10
59977;DHT22;45837;51.076;3.578;2022-12-07T14:51:37;20.90;55.50
59977;DHT22;45837;51.076;3.578;2022-12-07T14:54:05;21.00;54.90
59977;DHT22;45837;51.076;3.578;2022-12-07T14:56:31;21.00;54.30
59977;DHT22;45837;51.076;3.578;2022-12-07T14:58:57;21.00;54.00
59977;DHT22;45837;51.076;3.578;2022-12-07T15:01:23;21.00;53.40
59977;DHT22;45837;51.076;3.578;2022-12-07T15:03:49;21.00;53.70
59977;DHT22;45837;51.076;3.578;2022-12-07T15:06:17;20.90;53.00
59977;DHT22;45837;51.076;3.578;2022-12-07T15:08:44;21.00;53.00
59977;DHT22;45837;51.076;3.578;2022-12-07T15:11:18;21.00;52.90
59977;DHT22;45837;51.076;3.578;2022-12-07T15:13:44;21.00;52.60
59977;DHT22;45837;51.076;3.578;2022-12-07T15:16:30;21.00;52.60
59977;DHT22;45837;51.076;3.578;2022-12-07T15:18:56;21.00;52.50
59977;DHT22;45837;51.076;3.578;2022-12-07T15:21:22;21.00;52.30
59977;DHT22;45837;51.076;3.578;2022-12-07T15:23:48;21.00;52.10
59977;DHT22;45837;51.076;3.578;2022-12-07T15:26:14;21.00;51.90
59977;DHT22;45837;51.076;3.578;2022-12-07T15:28:41;21.00;51.60
59977;DHT22;45837;51.076;3.578;2022-12-07T15:31:15;21.00;51.60
59977;DHT22;45837;51.076;3.578;2022-12-07T15:33:41;21.10;51.50
59977;DHT22;45837;51.076;3.578;2022-12-07T15:36:07;21.10;51.10
59977;DHT22;45837;51.076;3.578;2022-12-07T15:38:35;21.10;50.90
59977;DHT22;45837;51.076;3.578;2022-12-07T15:41:01;21.10;51.50
59977;DHT22;45837;51.076;3.578;2022-12-07T15:43:26;21.10;52.20
59977;DHT22;45837;51.076;3.578;2022-12-07T15:46:11;21.10;53.20
59977;DHT22;45837;51.076;3.578;2022-12-07T15:48:37;21.20;53.70
59977;DHT22;45837;51.076;3.578;2022-12-07T15:51:07;21.20;54.00
59977;DHT22;45837;51.076;3.578;2022-12-07T15:53:35;21.20;54.10
59977;DHT22;45837;51.076;3.578;2022-12-07T15:56:01;21.20;54.40
59977;DHT22;45837;51.076;3.578;2022-12-07T15:58:31;21.30;54.70
59977;DHT22;45837;51.076;3.578;2022-12-07T16:00:57;21.20;55.20
59977;DHT22;45837;51.076;3.578;2022-12-07T16:03:23;21.20;55.10
59977;DHT22;45837;51.076;3.578;2022-12-07T16:05:49;21.30;55.30
59977;DHT22;45837;51.076;3.578;2022-12-07T16:08:15;21.30;55.20
59977;DHT22;45837;51.076;3.578;2022-12-07T16:10:41;21.30;56.00
59977;DHT22;45837;51.076;3.578;2022-12-07T16:13:10;21.30;55.70
59977;DHT22;45837;51.076;3.578;2022-12-07T16:15:40;21.30;55.80
59977;DHT22;45837;51.076;3.578;2022-12-07T16:18:06;21.30;55.90
59977;DHT22;45837;51.076;3.578;2022-12-07T16:20:32;21.30;56.10
59977;DHT22;45837;51.076;3.578;2022-12-07T16:22:58;21.30;56.30
59977;DHT22;45837;51.076;3.578;2022-12-07T16:25:24;21.30;57.20
59977;DHT22;45837;51.076;3.578;2022-12-07T16:27:51;21.30;57.30
59977;DHT22;45837;51.076;3.578;2022-12-07T16:30:17;21.30;57.00
59977;DHT22;45837;51.076;3.578;2022-12-07T16:32:43;21.30;56.90
59977;DHT22;45837;51.076;3.578;2022-12-07T16:35:09;21.40;58.00
59977;DHT22;45837;51.076;3.578;2022-12-07T16:37:35;21.30;58.00
59977;DHT22;45837;51.076;3.578;2022-12-07T16:40:01;21.40;57.90
59977;DHT22;45837;51.076;3.578;2022-12-07T16:42:31;21.40;58.60
59977;DHT22;45837;51.076;3.578;2022-12-07T16:44:57;21.40;58.20
59977;DHT22;45837;51.076;3.578;2022-12-07T16:47:23;21.30;58.30
59977;DHT22;45837;51.076;3.578;2022-12-07T16:49:49;21.30;58.50
59977;DHT22;45837;51.076;3.578;2022-12-07T16:52:15;21.30;58.90
59977;DHT22;45837;51.076;3.578;2022-12-07T16:54:41;21.30;58.70
59977;DHT22;45837;51.076;3.578;2022-12-07T16:57:06;21.30;58.40
59977;DHT22;45837;51.076;3.578;2022-12-07T16:59:32;21.30;58.50
59977;DHT22;45837;51.076;3.578;2022-12-07T17:01:58;21.30;58.40
59977;DHT22;45837;51.076;3.578;2022-12-07T17:04:24;21.30;58.40
59977;DHT22;45837;51.076;3.578;2022-12-07T17:06:50;21.20;58.50
59977;DHT22;45837;51.076;3.578;2022-12-07T17:09:15;21.20;58.70
59977;DHT22;45837;51.076;3.578;2022-12-07T17:11:44;21.20;58.60
59977;DHT22;45837;51.076;3.578;2022-12-07T17:14:10;21.20;58.30
59977;DHT22;45837;51.076;3.578;2022-12-07T17:16:54;21.30;58.30
59977;DHT22;45837;51.076;3.578;2022-12-07T17:19:20;21.30;58.40
59977;DHT22;45837;51.076;3.578;2022-12-07T17:21:46;21.20;58.50
59977;DHT22;45837;51.076;3.578;2022-12-07T17:24:14;21.20;58.20
59977;DHT22;45837;51.076;3.578;2022-12-07T17:26:42;21.30;57.90
59977;DHT22;45837;51.076;3.578;2022-12-07T17:29:11;21.30;57.70
59977;DHT22;45837;51.076;3.578;2022-12-07T17:31:37;21.30;57.60
59977;DHT22;45837;51.076;3.578;2022-12-07T17:34:03;21.20;57.50
59977;DHT22;45837;51.076;3.578;2022-12-07T17:36:30;21.20;57.60
59977;DHT22;45837;51.076;3.578;2022-12-07T17:38:56;21.20;57.60
59977;DHT22;45837;51.076;3.578;2022-12-07T17:41:24;21.20;57.60
59977;DHT22;45837;51.076;3.578;2022-12-07T17:44:11;21.20;57.60
59977;DHT22;45837;51.076;3.578;2022-12-07T17:46:38;21.20;57.60
59977;DHT22;45837;51.076;3.578;2022-12-07T17:49:04;21.20;57.50
59977;DHT22;45837;51.076;3.578;2022-12-07T17:51:31;21.30;57.20
59977;DHT22;45837;51.076;3.578;2022-12-07T17:54:16;21.20;57.50
59977;DHT22;45837;51.076;3.578;2022-12-07T17:56:42;21.30;57.90
59977;DHT22;45837;51.076;3.578;2022-12-07T17:59:08;21.30;58.20
59977;DHT22;45837;51.076;3.578;2022-12-07T18:01:34;21.30;58.70
59977;DHT22;45837;51.076;3.578;2022-12-07T18:04:00;21.30;59.20
59977;DHT22;45837;51.076;3.578;2022-12-07T18:06:26;21.30;59.70